Aérodrome :
LOGIN :

S'inscrire | Disclaimer

   EN    FR    IT 

 










Légende :    VFR   VFR Marginal   IFR   IFR Intensif   IFR Très Intensif
Visi : 
Plafond : 
>= 8 km
>= 3000ft
5 à 8 km
1000 à 3000 ft
1500m à 5 km
500 à 1000 ft
800 à 1500m
200 à 500 ft
< 800m
< 200 ft
Symboles :   Orages  Brouillard  Fortes neiges  Fortes précipitations  Vent > 20 kt
SIGMETs :   Divers  Orages  Givrage  Turbulence  Onde Orograph.  Cendres Volcan.







- Altitude de l'aérodrome : 290 ft
- Code IATA : LAI
- Voir les cartes d'approche


LFRO - Lannion

DERNIER METAR :
  • 270800Z AUTO 17011KT 140V200 9999 SCT014 SCT019 BKN042 11/09 Q1001 TEMPO 18018G33KT 3000 RA BKN010 SCT030CB

METARs EXPIRÉS :
  • 270730Z AUTO 14015KT 8000 RA BKN017/// OVC023/// ///CB 10/08 Q1002 TEMPO 18018G33KT 3000 RA BKN010 SCT030CB
  • 270700Z AUTO 13013KT 9999 SCT019/// BKN031/// BKN040/// ///TCU 10/08 Q1002 TEMPO 18018G33KT 3000 RA BKN010 SCT030CB
  • 270630Z AUTO 13009KT 9999 FEW049 09/07 Q1003 TEMPO 18018G33KT 3000 RA BKN010 SCT030CB
  • 270600Z AUTO 12011KT 9999 FEW014/// BKN056/// BKN074/// ///CB 08/07 Q1003 TEMPO 18018G33KT 3000 RA BKN010 SCT030CB
  • 270530Z AUTO 10009KT 050V120 7000 RA SCT019/// SCT047/// BKN058/// ///CB 08/06 Q1004 TEMPO 18018G33KT 3000 RA BKN010 SCT030CB

TAF TAF LFRO
Valide du 27 à 06h jusqu'au 28 à 06h UTC


270500Z 2706/2806 18012G23KT 9999 BKN016
TEMPO 2706/2710 18018G33KT 3000 RA BKN010 SCT030CB
BECMG 2710/2712 22020G30KT BKN015
TEMPO 2710/2803 SHRA BKN005 BKN020
BECMG 2717/2720 26012KT
Pas de NOTAMs connus pour ce terrain.
2 SIGMETs publiés pour la FIR Brest (LFRR) :
 
Turbulence forte
LFRR SIGMET 3 VALID 270640/271040 LFPW
LFRR BREST FIR/UIR SEV TURB OBS AT 0635Z WI N4530 W00800 - N4745 W00800 - N4815 W00615 - N4915 W00530 - N4930 W00415 - N4700 W00300 - N4530 W00800 SFC/FL060 STNR NC=
Annulation du SIGMET 1 
LFRR SIGMET 2 VALID 270640/270800 LFPW
LFRR BREST FIR/UIR CNL SIGMET 1 270400/270800=



MET'MAP, la Météo Aéronautique d'un coup d'oeil ! - Copyright ORBIFLY Décembre 2007 - Disclaimer

ORBIFLY MET'MAP TEAM :

Programmation & Développement : Alexandra Zaïnal
Conception & Développement : Baudouin d'Aumeries
Co-Programmation & Développement : Marc-Olivier Méhu
Soutien technique & logistique : Manuel Goepfert

Contact : metmap@orbifly.com




SOURCES & CREDITS :

   NOAA